Weather at Malacca International Airport

Public forecast

Using degrees Celsius for public forecast. Weather courtesy of forecast.io.

Current aviation weather report (METAR) for Malacca International Airport

2024/05/28 13:00 (retrieved 20 minutes ago)

WMKM 281300Z 13005KT 080V190 9999 SCT028 30/27 Q1008

Aviation forecast (TAF) for Malacca International Airport

2024/05/28 12:00 (retrieved 1 hour ago)

TAF WMKM 281100Z 2812/2912 15006KT 9999 FEW020